Time;durP1;ratioP1;P1;durP2;ratioP2;P2;SDS_P1;SDS_P2;PMS_P1;PMS_P2;Temp;Humidity;BMP_temperature;BMP_pressure;BME280_temperature;BME280_humidity;BME280_pressure;Samples;Min_cycle;Max_cycle;Signal;HPM_P1;HPM_P2
2024/03/20 00:02:17;;;;;;;15.23;10.63;;;;;;;9.88;100.00;101861.00;7754980;22;20475;-68
2024/03/20 00:05:38;;;;;;;10.70;9.60;;;;;;;9.90;100.00;101849.16;7770950;22;20559;-68
2024/03/20 00:09:00;;;;;;;12.40;11.17;;;;;;;9.98;100.00;101848.59;7739203;22;20206;-69
2024/03/20 00:12:21;;;;;;;11.80;9.97;;;;;;;9.94;100.00;101850.66;7774064;22;20210;-69
2024/03/20 00:15:42;;;;;;;10.47;9.47;;;;;;;9.93;100.00;101838.16;7770749;22;20210;-69
2024/03/20 00:19:05;;;;;;;11.10;9.47;;;;;;;10.00;100.00;101839.44;7763237;22;20226;-70
2024/03/20 00:22:35;;;;;;;16.10;10.73;;;;;;;9.94;100.00;101837.19;7773060;22;20218;-69
2024/03/20 00:25:56;;;;;;;11.77;10.50;;;;;;;9.84;100.00;101838.81;7751185;22;20243;-68
2024/03/20 00:29:17;;;;;;;11.27;10.07;;;;;;;9.91;100.00;101836.56;7772295;22;20215;-68
2024/03/20 00:32:38;;;;;;;20.20;10.60;;;;;;;9.89;100.00;101833.13;7767264;22;20297;-68
2024/03/20 00:36:00;;;;;;;12.47;10.37;;;;;;;9.87;100.00;101835.91;7768484;22;20688;-69
2024/03/20 00:39:21;;;;;;;13.63;10.83;;;;;;;9.83;100.00;101838.91;7775882;22;20629;-69
2024/03/20 00:42:42;;;;;;;13.63;10.17;;;;;;;9.78;100.00;101835.69;7769430;22;20210;-68
2024/03/20 00:46:06;;;;;;;11.07;9.97;;;;;;;9.90;100.00;101838.38;7764020;22;20290;-70
2024/03/20 00:49:27;;;;;;;11.00;9.87;;;;;;;9.91;100.00;101839.25;7762791;22;20210;-69
2024/03/20 00:52:49;;;;;;;15.00;10.43;;;;;;;9.92;100.00;101831.06;7752566;22;20612;-68
2024/03/20 00:56:10;;;;;;;10.83;9.77;;;;;;;9.91;100.00;101837.41;7770227;22;20222;-69
2024/03/20 00:59:31;;;;;;;11.43;10.30;;;;;;;9.80;100.00;101834.63;7762111;22;20242;-68
2024/03/20 01:02:53;;;;;;;15.50;9.97;;;;;;;9.85;100.00;101839.66;7742790;22;20257;-69
2024/03/20 01:06:14;;;;;;;12.67;9.37;;;;;;;9.81;100.00;101833.63;7751471;22;20214;-68
2024/03/20 01:09:39;;;;;;;12.00;9.37;;;;;;;9.84;100.00;101835.25;7778734;22;20210;-70
2024/03/20 01:13:00;;;;;;;11.77;10.60;;;;;;;9.85;100.00;101828.88;7750838;22;20298;-67
2024/03/20 01:16:21;;;;;;;10.23;9.17;;;;;;;9.95;100.00;101827.28;7749089;22;20210;-68
2024/03/20 01:19:42;;;;;;;13.93;11.03;;;;;;;9.86;100.00;101818.03;7777832;22;20293;-68
2024/03/20 01:23:03;;;;;;;11.53;10.33;;;;;;;9.76;100.00;101821.47;7770639;22;20932;-68
2024/03/20 01:26:28;;;;;;;10.87;9.37;;;;;;;9.71;100.00;101834.38;7771024;22;20237;-68
2024/03/20 01:29:48;;;;;;;12.80;10.97;;;;;;;9.71;100.00;101829.00;7762104;22;20218;-69
2024/03/20 01:33:09;;;;;;;11.77;10.57;;;;;;;9.76;100.00;101825.03;7763388;22;20544;-67
2024/03/20 01:36:30;;;;;;;14.40;11.27;;;;;;;9.99;100.00;101826.94;7752865;22;20218;-68
2024/03/20 01:40:26;;;;;;;12.23;10.40;;;;;;;10.03;100.00;101827.59;7760712;22;20218;-69
2024/03/20 01:44:16;;;;;;;11.67;10.53;;;;;;;10.21;100.00;101834.41;7770624;22;20210;-68
2024/03/20 01:47:38;;;;;;;11.20;10.00;;;;;;;10.24;100.00;101834.19;7766708;22;20769;-68
2024/03/20 01:50:58;;;;;;;11.80;10.67;;;;;;;10.23;100.00;101832.44;7770734;22;20243;-69
2024/03/20 01:54:20;;;;;;;16.00;12.43;;;;;;;10.23;100.00;101833.31;7762804;22;20214;-68
2024/03/20 01:57:40;;;;;;;12.80;10.47;;;;;;;10.27;100.00;101833.94;7769060;22;20305;-69
2024/03/20 02:01:03;;;;;;;11.23;10.17;;;;;;;10.21;100.00;101826.31;7746829;22;20226;-68
2024/03/20 02:04:24;;;;;;;11.63;10.43;;;;;;;10.38;100.00;101834.91;7760280;22;20214;-67
2024/03/20 02:07:45;;;;;;;10.73;9.73;;;;;;;10.22;100.00;101817.28;7768057;22;20249;-68
2024/03/20 02:11:06;;;;;;;12.30;11.03;;;;;;;10.21;100.00;101821.78;7776444;22;20210;-68
2024/03/20 02:14:27;;;;;;;12.40;9.27;;;;;;;9.88;100.00;101818.78;7755075;22;20300;-68
2024/03/20 02:17:49;;;;;;;11.67;10.47;;;;;;;9.68;100.00;101820.16;7765803;22;20215;-70
2024/03/20 02:21:12;;;;;;;12.63;10.43;;;;;;;9.76;100.00;101818.78;7770036;22;20222;-70
2024/03/20 02:24:33;;;;;;;13.93;12.37;;;;;;;9.86;100.00;101814.47;7755803;22;20222;-69
2024/03/20 02:27:54;;;;;;;11.40;10.17;;;;;;;9.90;100.00;101811.44;7744440;22;20214;-69
2024/03/20 02:31:16;;;;;;;11.00;9.83;;;;;;;9.71;100.00;101804.78;7765375;22;20211;-69
2024/03/20 02:34:36;;;;;;;11.23;10.10;;;;;;;9.72;100.00;101809.19;7759443;22;20206;-69
2024/03/20 02:37:59;;;;;;;22.93;9.67;;;;;;;9.73;100.00;101798.31;7755574;22;20577;-68
2024/03/20 02:41:20;;;;;;;12.20;10.93;;;;;;;9.64;100.00;101802.50;7772235;22;20214;-68
2024/03/20 02:44:44;;;;;;;12.87;10.57;;;;;;;9.68;100.00;101805.00;7774104;22;20214;-69
2024/03/20 02:48:05;;;;;;;10.40;9.50;;;;;;;9.80;100.00;101798.75;7752881;22;20207;-68
2024/03/20 02:51:26;;;;;;;13.93;10.17;;;;;;;9.83;100.00;101804.78;7714611;22;20215;-67
2024/03/20 02:54:48;;;;;;;12.00;10.00;;;;;;;9.57;100.00;101813.81;7778810;22;20214;-69
2024/03/20 02:58:10;;;;;;;12.07;10.77;;;;;;;9.54;100.00;101806.81;7775576;22;20296;-69
2024/03/20 03:01:30;;;;;;;14.10;10.23;;;;;;;9.72;100.00;101810.03;7765566;22;20207;-68
2024/03/20 03:04:51;;;;;;;13.50;10.63;;;;;;;9.77;100.00;101798.94;7746362;22;20504;-68
2024/03/20 03:08:37;;;;;;;12.20;9.87;;;;;;;9.81;100.00;101795.06;7776977;22;20298;-68
2024/03/20 03:12:02;;;;;;;11.27;9.97;;;;;;;9.85;100.00;101800.13;7721459;22;20223;-68
2024/03/20 03:15:25;;;;;;;11.73;10.47;;;;;;;9.89;100.00;101787.34;7755629;22;20249;-68
2024/03/20 03:18:46;;;;;;;11.87;10.37;;;;;;;9.58;100.00;101789.47;7775535;22;20210;-68
2024/03/20 03:22:07;;;;;;;10.97;9.83;;;;;;;9.71;100.00;101788.63;7732554;22;20274;-68
2024/03/20 03:25:31;;;;;;;11.83;10.10;;;;;;;9.49;100.00;101798.19;7769000;22;21588;-68
2024/03/20 03:28:53;;;;;;;13.07;11.30;;;;;;;9.39;100.00;101788.16;7771507;22;20310;-68
2024/03/20 03:32:14;;;;;;;12.40;11.13;;;;;;;9.31;100.00;101795.91;7716604;22;20481;-69
2024/03/20 03:35:38;;;;;;;12.97;10.90;;;;;;;9.49;100.00;101803.56;7739442;22;20547;-69
2024/03/20 03:39:01;;;;;;;13.23;10.50;;;;;;;9.40;100.00;101797.97;7744306;22;20640;-68
2024/03/20 03:42:22;;;;;;;11.50;9.53;;;;;;;9.38;100.00;101799.91;7739044;22;20210;-68
2024/03/20 03:45:45;;;;;;;12.83;10.57;;;;;;;9.34;100.00;101801.09;7756076;22;20248;-69
2024/03/20 03:49:06;;;;;;;10.70;9.67;;;;;;;9.29;100.00;101806.78;7778277;22;20251;-69
2024/03/20 03:52:30;;;;;;;11.67;10.17;;;;;;;9.41;100.00;101795.19;7717646;23;20282;-68
2024/03/20 03:55:51;;;;;;;11.80;10.60;;;;;;;9.56;100.00;101796.81;7722484;23;20230;-68
2024/03/20 03:59:12;;;;;;;10.50;9.40;;;;;;;9.44;100.00;101808.44;7725746;23;20215;-69
2024/03/20 04:02:34;;;;;;;11.77;10.37;;;;;;;9.50;100.00;101796.38;7683963;23;20216;-68
2024/03/20 04:06:01;;;;;;;13.73;11.37;;;;;;;9.62;100.00;101798.19;7717570;23;20211;-70
2024/03/20 04:09:25;;;;;;;14.37;11.17;;;;;;;9.54;100.00;101798.75;7742462;23;20478;-69
2024/03/20 04:12:45;;;;;;;13.60;10.83;;;;;;;9.91;100.00;101801.56;7735616;23;20215;-68
2024/03/20 04:16:06;;;;;;;12.30;11.10;;;;;;;9.92;100.00;101796.03;7729233;23;20223;-69
2024/03/20 04:19:29;;;;;;;11.30;10.20;;;;;;;10.08;100.00;101799.34;7697973;23;20241;-68
2024/03/20 04:22:50;;;;;;;11.63;10.40;;;;;;;9.85;100.00;101801.97;7734704;23;20206;-69
2024/03/20 04:26:11;;;;;;;14.50;11.27;;;;;;;9.50;100.00;101802.63;7697662;23;20444;-69
2024/03/20 04:29:32;;;;;;;16.03;11.47;;;;;;;9.49;100.00;101806.25;7701516;23;20215;-70
2024/03/20 04:32:53;;;;;;;11.80;9.90;;;;;;;9.51;100.00;101809.72;7687233;23;20212;-68
2024/03/20 04:36:15;;;;;;;11.40;10.20;;;;;;;9.64;100.00;101807.91;7697992;23;20214;-68
2024/03/20 04:39:36;;;;;;;14.90;10.87;;;;;;;9.74;100.00;101807.25;7724628;23;20219;-68
2024/03/20 04:42:57;;;;;;;12.90;11.30;;;;;;;9.56;100.00;101806.72;7714223;23;20214;-68
2024/03/20 04:46:18;;;;;;;13.83;12.33;;;;;;;9.68;100.00;101801.31;7709818;23;20215;-68
2024/03/20 04:49:39;;;;;;;12.77;11.17;;;;;;;9.86;100.00;101801.00;7701222;22;20198;-68
2024/03/20 04:53:02;;;;;;;10.37;9.37;;;;;;;9.60;100.00;101802.81;7696895;22;20252;-69
2024/03/20 04:56:23;;;;;;;11.53;10.37;;;;;;;9.52;100.00;101803.38;7746150;22;20692;-69
2024/03/20 04:59:44;;;;;;;11.27;10.17;;;;;;;9.45;100.00;101795.84;7776617;22;20211;-69
2024/03/20 05:03:05;;;;;;;16.03;11.53;;;;;;;9.35;100.00;101806.38;7770071;22;20214;-69
2024/03/20 05:06:26;;;;;;;11.10;9.90;;;;;;;9.37;100.00;101808.94;7774355;22;20537;-68
2024/03/20 05:09:48;;;;;;;11.77;10.53;;;;;;;9.36;100.00;101816.19;7778840;22;20206;-67
2024/03/20 05:13:09;;;;;;;12.83;11.57;;;;;;;9.28;100.00;101813.13;7770917;22;20219;-68
2024/03/20 05:16:37;;;;;;;13.20;11.77;;;;;;;9.49;100.00;101832.34;7763317;22;20490;-71
2024/03/20 05:19:57;;;;;;;17.20;14.27;;;;;;;9.61;100.00;101824.28;7746247;22;20311;-68
2024/03/20 05:23:18;;;;;;;13.60;12.20;;;;;;;9.69;100.00;101823.72;7745606;22;20222;-68
2024/03/20 05:26:40;;;;;;;11.47;10.27;;;;;;;9.80;100.00;101826.53;7711457;22;20206;-67
2024/03/20 05:30:02;;;;;;;19.60;17.60;;;;;;;9.74;100.00;101818.91;7778637;22;20210;-68
2024/03/20 05:33:23;;;;;;;12.80;11.50;;;;;;;9.59;100.00;101823.53;7774690;22;20211;-68
2024/03/20 05:36:44;;;;;;;14.97;11.10;;;;;;;9.38;100.00;101822.31;7771670;22;20222;-68
2024/03/20 05:40:05;;;;;;;12.03;10.83;;;;;;;9.39;100.00;101818.63;7757863;22;20572;-72
2024/03/20 05:43:28;;;;;;;14.80;11.57;;;;;;;9.51;100.00;101825.84;7727633;22;20518;-69
2024/03/20 05:46:50;;;;;;;13.07;11.83;;;;;;;9.63;100.00;101825.03;7770717;22;20467;-68
2024/03/20 05:50:12;;;;;;;16.00;13.83;;;;;;;9.66;100.00;101808.66;7772463;22;20565;-69
2024/03/20 05:53:33;;;;;;;12.57;11.23;;;;;;;9.85;100.00;101823.50;7779259;22;20210;-68
2024/03/20 05:56:53;;;;;;;14.70;10.40;;;;;;;9.88;100.00;101820.59;7772413;22;20206;-67
2024/03/20 06:00:17;;;;;;;14.93;11.63;;;;;;;9.82;100.00;101823.72;7762535;22;20230;-66
2024/03/20 06:03:37;;;;;;;13.13;11.73;;;;;;;9.90;100.00;101835.69;7717342;22;20958;-69
2024/03/20 06:06:57;;;;;;;14.47;11.83;;;;;;;9.88;100.00;101829.56;7697978;23;20318;-69
2024/03/20 06:10:18;;;;;;;15.30;11.83;;;;;;;9.87;100.00;101826.94;7721825;23;20206;-69
2024/03/20 06:13:39;;;;;;;13.00;11.60;;;;;;;9.83;100.00;101834.38;7710897;23;20254;-71
2024/03/20 06:17:02;;;;;;;15.97;13.03;;;;;;;9.91;100.00;101833.88;7737294;23;20215;-68
2024/03/20 06:20:23;;;;;;;12.37;10.87;;;;;;;9.90;100.00;101840.22;7735655;23;20753;-68
2024/03/20 06:23:44;;;;;;;12.97;11.63;;;;;;;9.65;100.00;101849.16;7737773;23;20215;-68
2024/03/20 06:27:13;;;;;;;13.20;11.17;;;;;;;9.82;100.00;101838.06;7716594;23;20227;-71
2024/03/20 06:30:33;;;;;;;14.23;11.67;;;;;;;9.68;100.00;101848.09;7721177;23;20218;-68
2024/03/20 06:33:55;;;;;;;13.17;11.87;;;;;;;9.60;100.00;101852.16;7718836;23;20207;-68
2024/03/20 06:37:16;;;;;;;13.23;11.83;;;;;;;9.49;100.00;101864.63;7710601;23;20211;-69
2024/03/20 06:40:37;;;;;;;14.53;12.57;;;;;;;9.63;100.00;101859.16;7718425;23;20215;-69
2024/03/20 06:43:57;;;;;;;13.97;10.07;;;;;;;9.76;100.00;101861.88;7740064;23;20211;-68
2024/03/20 06:47:18;;;;;;;16.37;12.27;;;;;;;10.03;100.00;101859.94;7714814;23;20756;-68
2024/03/20 06:50:49;;;;;;;15.13;12.47;;;;;;;9.99;100.00;101861.97;7715777;23;20215;-71
2024/03/20 06:54:16;;;;;;;13.87;11.40;;;;;;;9.62;100.00;101865.50;7743147;23;20222;-74
2024/03/20 06:57:48;;;;;;;11.70;10.50;;;;;;;9.77;100.00;101860.88;7723678;23;20210;-71
2024/03/20 07:01:09;;;;;;;13.87;12.47;;;;;;;9.90;100.00;101859.06;7706199;22;20265;-67
2024/03/20 07:04:29;;;;;;;13.63;12.33;;;;;;;9.86;100.00;101857.56;7760170;22;20539;-67
2024/03/20 07:07:54;;;;;;;17.73;12.33;;;;;;;9.84;100.00;101867.56;7774009;22;20881;-67
2024/03/20 07:11:17;;;;;;;14.27;11.93;;;;;;;9.77;100.00;101872.53;7759751;22;20299;-69
2024/03/20 07:14:41;;;;;;;12.70;10.67;;;;;;;9.93;100.00;101873.16;7765449;22;20210;-69
2024/03/20 07:18:13;;;;;;;13.43;12.13;;;;;;;9.84;100.00;101871.13;7735077;22;20301;-68
2024/03/20 07:21:35;;;;;;;13.97;12.03;;;;;;;10.11;100.00;101874.63;7758549;22;20211;-67
2024/03/20 07:24:57;;;;;;;15.93;13.77;;;;;;;10.24;100.00;101864.66;7744848;22;20210;-68
2024/03/20 07:28:18;;;;;;;16.67;12.80;;;;;;;10.44;100.00;101876.72;7742933;22;20218;-69
2024/03/20 07:31:40;;;;;;;15.77;13.83;;;;;;;10.40;100.00;101877.91;7773504;22;20282;-67
2024/03/20 07:35:00;;;;;;;14.87;11.70;;;;;;;10.61;100.00;101873.66;7780129;22;20206;-68
2024/03/20 07:38:21;;;;;;;14.07;12.67;;;;;;;10.69;100.00;101871.28;7777974;22;20310;-68
2024/03/20 07:41:59;;;;;;;15.87;13.03;;;;;;;10.72;100.00;101870.19;7774666;22;20214;-69
2024/03/20 07:45:23;;;;;;;14.47;12.87;;;;;;;10.98;100.00;101872.69;7774917;22;20227;-69
2024/03/20 07:48:46;;;;;;;16.33;13.23;;;;;;;11.01;100.00;101877.81;7763309;22;20202;-68
2024/03/20 07:52:07;;;;;;;18.70;14.20;;;;;;;11.02;100.00;101881.38;7759333;22;20215;-68
2024/03/20 07:55:30;;;;;;;15.80;14.10;;;;;;;11.01;100.00;101883.22;7750001;22;20206;-67
2024/03/20 07:58:52;;;;;;;20.77;15.67;;;;;;;11.16;100.00;101882.06;7778461;22;20218;-68
2024/03/20 08:02:29;;;;;;;17.20;14.43;;;;;;;11.10;100.00;101885.25;7764894;22;20217;-68
2024/03/20 08:05:50;;;;;;;15.43;13.47;;;;;;;11.33;100.00;101882.66;7780520;22;20242;-67
2024/03/20 08:09:09;;;;;;;18.07;14.27;;;;;;;11.55;100.00;101880.03;7766896;22;20210;-68
2024/03/20 08:12:33;;;;;;;15.17;13.23;;;;;;;11.93;100.00;101897.72;7761658;22;20214;-69
2024/03/20 08:16:04;;;;;;;15.47;12.67;;;;;;;11.70;100.00;101897.81;7783158;22;20221;-71
2024/03/20 08:19:34;;;;;;;18.40;14.70;;;;;;;11.96;100.00;101899.34;7787683;22;20226;-70
2024/03/20 08:22:55;;;;;;;17.43;13.23;;;;;;;12.08;100.00;101895.66;7774565;22;20214;-71
2024/03/20 08:26:15;;;;;;;16.20;13.40;;;;;;;12.23;100.00;101891.75;7773807;22;20252;-69
2024/03/20 08:29:36;;;;;;;15.57;13.67;;;;;;;12.15;100.00;101899.59;7762169;22;20214;-68
2024/03/20 08:32:58;;;;;;;19.70;14.83;;;;;;;12.23;100.00;101901.69;7769141;22;20503;-68
2024/03/20 08:36:20;;;;;;;17.47;14.97;;;;;;;12.51;100.00;101895.81;7760655;22;20297;-68
2024/03/20 08:39:46;;;;;;;15.67;14.03;;;;;;;12.08;100.00;101894.81;7765393;22;20210;-69
2024/03/20 08:43:08;;;;;;;17.40;15.47;;;;;;;12.36;100.00;101897.03;7764152;22;20845;-68
2024/03/20 08:46:41;;;;;;;16.10;13.07;;;;;;;12.26;100.00;101896.06;7774180;22;20214;-70
2024/03/20 08:50:08;;;;;;;21.23;15.43;;;;;;;12.10;100.00;101904.50;7778496;22;20206;-68
2024/03/20 08:53:30;;;;;;;19.30;13.97;;;;;;;12.57;100.00;101895.31;7785187;22;20297;-68
2024/03/20 08:56:51;;;;;;;19.00;14.97;;;;;;;12.55;100.00;101890.03;7776389;22;20214;-68
2024/03/20 09:00:16;;;;;;;19.37;15.23;;;;;;;12.61;100.00;101891.38;7769117;22;20214;-68
2024/03/20 09:03:37;;;;;;;16.97;15.27;;;;;;;12.72;100.00;101899.50;7794207;22;20222;-68
2024/03/20 09:07:01;;;;;;;19.43;15.67;;;;;;;13.05;100.00;101896.75;7772503;22;20560;-70
2024/03/20 09:10:22;;;;;;;19.07;17.00;;;;;;;13.36;100.00;101893.19;7777382;22;20214;-68
2024/03/20 09:13:43;;;;;;;20.03;17.47;;;;;;;12.90;100.00;101889.84;7791995;22;20207;-68
2024/03/20 09:17:05;;;;;;;19.30;14.87;;;;;;;12.82;100.00;101893.22;7775558;22;20564;-68
2024/03/20 09:20:25;;;;;;;17.37;15.47;;;;;;;13.28;100.00;101900.25;7776409;22;20511;-68
2024/03/20 09:23:47;;;;;;;17.93;14.73;;;;;;;13.80;100.00;101889.41;7774474;22;20258;-69
2024/03/20 09:27:07;;;;;;;20.33;15.63;;;;;;;13.80;100.00;101893.97;7759374;22;20454;-70
2024/03/20 09:30:33;;;;;;;18.30;15.80;;;;;;;13.91;100.00;101897.50;7792978;22;20210;-68
2024/03/20 09:33:54;;;;;;;19.80;14.47;;;;;;;14.11;100.00;101893.91;7768049;22;20667;-67
2024/03/20 09:37:13;;;;;;;25.67;16.33;;;;;;;14.53;100.00;101891.13;7775315;22;20218;-68
2024/03/20 09:40:36;;;;;;;20.03;15.50;;;;;;;14.95;100.00;101888.13;7776417;22;20247;-68
2024/03/20 09:43:57;;;;;;;20.60;14.47;;;;;;;15.40;100.00;101882.16;7783720;22;20206;-69
2024/03/20 09:47:18;;;;;;;21.43;16.43;;;;;;;15.81;100.00;101880.03;7758671;22;20252;-69
2024/03/20 09:50:40;;;;;;;19.73;15.93;;;;;;;16.11;100.00;101881.69;7763624;22;20206;-68
2024/03/20 09:54:05;;;;;;;20.87;16.30;;;;;;;16.40;100.00;101881.59;7751518;22;20214;-72
2024/03/20 09:57:29;;;;;;;17.67;15.07;;;;;;;17.08;100.00;101883.88;7772726;22;20210;-69
2024/03/20 10:00:50;;;;;;;21.07;17.13;;;;;;;17.36;100.00;101881.91;7770378;22;20214;-67
2024/03/20 10:04:11;;;;;;;19.07;16.23;;;;;;;17.94;100.00;101876.84;7810581;22;20289;-69
2024/03/20 10:07:31;;;;;;;19.90;15.77;;;;;;;17.71;100.00;101873.75;7755888;22;20551;-68
2024/03/20 10:10:53;;;;;;;21.20;17.63;;;;;;;17.84;100.00;101873.34;7798723;22;20259;-68
2024/03/20 10:14:15;;;;;;;18.00;16.07;;;;;;;18.00;100.00;101871.59;7800474;22;20218;-68
2024/03/20 10:17:45;;;;;;;18.90;16.00;;;;;;;18.69;100.00;101862.47;7778267;22;20210;-72
2024/03/20 10:21:07;;;;;;;27.73;17.63;;;;;;;18.78;100.00;101864.19;7806629;22;20213;-69
2024/03/20 10:24:26;;;;;;;18.23;16.02;;;;;;;16.75;100.00;101865.44;7804687;22;20206;-69
2024/03/20 10:27:49;;;;;;;18.33;16.43;;;;;;;16.26;100.00;101866.63;7792460;22;20619;-68
2024/03/20 10:31:21;;;;;;;22.57;16.27;;;;;;;17.71;100.00;101865.56;7793953;22;20222;-70
2024/03/20 10:34:45;;;;;;;22.60;17.50;;;;;;;17.96;100.00;101863.91;7801840;22;20297;-69
2024/03/20 10:38:16;;;;;;;20.80;17.55;;;;;;;17.43;100.00;101862.06;7790201;22;20218;-70
2024/03/20 10:41:37;;;;;;;18.90;16.00;;;;;;;17.26;100.00;101864.78;7803845;22;20218;-69
2024/03/20 10:45:00;;;;;;;22.88;17.70;;;;;;;18.35;100.00;101855.13;7817365;22;20217;-69
2024/03/20 10:48:24;;;;;;;20.15;16.55;;;;;;;17.30;100.00;101849.84;7798155;22;20210;-68
2024/03/20 10:51:45;;;;;;;19.27;15.98;;;;;;;19.82;100.00;101858.06;7811295;22;20202;-70
2024/03/20 10:55:07;;;;;;;19.33;16.98;;;;;;;21.78;85.12;101854.09;7781104;22;20214;-67
2024/03/20 10:58:29;;;;;;;19.13;16.90;;;;;;;22.35;78.46;101848.94;7820585;22;20213;-69
2024/03/20 11:01:56;;;;;;;19.33;16.25;;;;;;;23.09;70.19;101845.09;7774135;22;20214;-68
2024/03/20 11:05:48;;;;;;;16.60;14.88;;;;;;;24.16;63.50;101844.88;7808240;22;20878;-67
2024/03/20 11:09:23;;;;;;;19.45;15.65;;;;;;;24.18;61.23;101847.41;7682551;22;20251;-68
2024/03/20 11:12:45;;;;;;;17.45;15.23;;;;;;;23.14;63.64;101852.72;7811403;22;20225;-68
2024/03/20 11:16:06;;;;;;;18.88;15.20;;;;;;;22.38;64.40;101847.69;7782304;22;20218;-69
2024/03/20 11:19:38;;;;;;;19.80;17.42;;;;;;;22.33;68.91;101840.03;7815675;22;20214;-69
2024/03/20 11:23:00;;;;;;;19.02;15.32;;;;;;;24.27;60.66;101836.06;7797965;22;20217;-69
2024/03/20 11:26:20;;;;;;;17.80;16.00;;;;;;;23.33;60.88;101836.47;7794317;22;20275;-70
2024/03/20 11:29:41;;;;;;;18.25;16.30;;;;;;;22.62;63.50;101839.19;7814046;22;20214;-67
2024/03/20 11:33:01;;;;;;;17.40;15.63;;;;;;;21.97;67.97;101833.53;7807200;22;20508;-69
2024/03/20 11:36:22;;;;;;;16.20;14.52;;;;;;;19.73;73.60;101839.97;7750854;22;20226;-68
2024/03/20 11:39:46;;;;;;;22.75;15.93;;;;;;;18.35;87.67;101838.75;7815813;22;20209;-69
2024/03/20 11:43:07;;;;;;;22.10;17.05;;;;;;;18.44;91.60;101827.88;7801261;22;20571;-69
2024/03/20 11:46:27;;;;;;;19.30;16.20;;;;;;;19.70;91.21;101823.88;7802391;22;20210;-69
2024/03/20 11:49:48;;;;;;;15.75;9.27;;;;;;;21.92;88.10;101823.13;7814750;22;20210;-68
2024/03/20 11:53:09;;;;;;;18.20;11.80;;;;;;;22.59;75.71;101820.34;7799722;22;20251;-70
2024/03/20 11:56:35;;;;;;;18.23;13.50;;;;;;;20.72;77.85;101830.28;7795670;22;20262;-75
2024/03/20 12:00:12;;;;;;;20.98;16.30;;;;;;;20.77;79.34;101827.88;7802137;22;20270;-75
2024/03/20 12:03:37;;;;;;;15.35;13.10;;;;;;;19.50;82.06;101831.59;7811338;22;20213;-76
2024/03/20 12:06:58;;;;;;;17.35;14.70;;;;;;;20.02;85.39;101833.94;7788290;22;20214;-72
2024/03/20 12:10:36;;;;;;;19.85;15.65;;;;;;;21.71;78.68;101822.09;7768690;22;20262;-74
2024/03/20 12:13:58;;;;;;;18.45;15.77;;;;;;;21.48;69.28;101828.47;7788540;22;20515;-74
2024/03/20 12:17:19;;;;;;;21.17;15.05;;;;;;;18.41;87.17;101826.28;7753960;22;20218;-74
2024/03/20 12:20:41;;;;;;;20.48;15.60;;;;;;;17.86;100.00;101825.78;7791926;22;20715;-68
2024/03/20 12:24:11;;;;;;;22.65;14.52;;;;;;;18.98;99.55;101813.72;7805516;22;20575;-71
2024/03/20 12:27:31;;;;;;;17.98;15.00;;;;;;;17.93;100.00;101807.78;7809493;22;20217;-69
2024/03/20 12:30:54;;;;;;;18.42;13.93;;;;;;;17.44;100.00;101813.84;7800340;22;20540;-70
2024/03/20 12:34:16;;;;;;;14.70;12.00;;;;;;;17.02;100.00;101808.16;7815036;22;20482;-67
2024/03/20 12:37:39;;;;;;;14.05;12.52;;;;;;;17.53;100.00;101802.03;7808193;22;20225;-68
2024/03/20 12:40:59;;;;;;;17.47;12.70;;;;;;;16.27;100.00;101816.59;7791324;22;20284;-69
2024/03/20 12:44:20;;;;;;;15.43;12.73;;;;;;;16.40;100.00;101814.41;7803305;22;20262;-69
2024/03/20 12:47:41;;;;;;;16.93;13.00;;;;;;;17.22;100.00;101812.47;7756588;22;20243;-70
2024/03/20 12:51:03;;;;;;;13.27;11.93;;;;;;;17.20;100.00;101810.91;7799709;22;20239;-69
2024/03/20 12:54:26;;;;;;;11.50;9.53;;;;;;;16.64;100.00;101813.88;7816327;22;20456;-67
2024/03/20 12:57:47;;;;;;;14.40;11.47;;;;;;;16.44;100.00;101806.78;7803675;22;20218;-70
2024/03/20 13:01:08;;;;;;;10.00;9.00;;;;;;;16.64;100.00;101803.88;7786723;22;20214;-69
2024/03/20 13:04:31;;;;;;;10.50;8.50;;;;;;;16.51;100.00;101802.50;7817276;22;20210;-70
2024/03/20 13:07:52;;;;;;;12.10;9.30;;;;;;;15.98;100.00;101805.84;7786892;22;20214;-70
2024/03/20 13:11:12;;;;;;;9.20;8.30;;;;;;;16.00;100.00;101812.00;7764149;22;20205;-68
2024/03/20 13:14:34;;;;;;;12.73;9.77;;;;;;;15.61;100.00;101810.38;7782637;22;20736;-69
2024/03/20 13:17:54;;;;;;;13.77;9.53;;;;;;;15.89;100.00;101811.31;7795146;22;20209;-69
2024/03/20 13:21:24;;;;;;;14.93;10.77;;;;;;;15.67;100.00;101815.22;7806265;22;20280;-67
2024/03/20 13:24:45;;;;;;;13.77;9.77;;;;;;;15.45;100.00;101811.97;7799836;22;20213;-70
2024/03/20 13:28:07;;;;;;;10.30;9.17;;;;;;;15.90;100.00;101804.88;7799893;22;20209;-67
2024/03/20 13:31:28;;;;;;;11.63;10.43;;;;;;;16.10;100.00;101808.38;7778360;22;20206;-69
2024/03/20 13:34:49;;;;;;;12.77;11.47;;;;;;;15.63;100.00;101807.50;7795539;22;20214;-70
2024/03/20 13:38:19;;;;;;;15.20;11.60;;;;;;;15.33;100.00;101813.09;7814178;22;20538;-68
2024/03/20 13:41:45;;;;;;;15.33;12.07;;;;;;;15.58;100.00;101801.66;7812624;22;20213;-72
2024/03/20 13:45:15;;;;;;;15.27;13.83;;;;;;;15.67;100.00;101806.22;7803510;22;20255;-70
2024/03/20 13:48:36;;;;;;;18.10;13.47;;;;;;;15.83;100.00;101806.47;7816318;22;20201;-70
2024/03/20 13:51:58;;;;;;;16.00;12.53;;;;;;;15.73;100.00;101797.47;7822705;22;20217;-67
2024/03/20 13:55:20;;;;;;;14.27;12.87;;;;;;;15.50;100.00;101796.94;7810328;22;20213;-71
2024/03/20 13:58:41;;;;;;;16.33;14.20;;;;;;;15.62;100.00;101790.38;7786646;22;20301;-70
2024/03/20 14:02:01;;;;;;;20.17;13.67;;;;;;;15.50;100.00;101810.53;7787452;22;20575;-69
2024/03/20 14:05:21;;;;;;;16.73;14.00;;;;;;;15.20;100.00;101805.25;7808196;22;20552;-69
2024/03/20 14:08:43;;;;;;;19.53;14.70;;;;;;;15.08;100.00;101807.22;7818053;22;20472;-69
2024/03/20 14:12:05;;;;;;;16.27;14.60;;;;;;;15.30;100.00;101803.38;7810830;22;20222;-70
2024/03/20 14:15:27;;;;;;;17.10;13.63;;;;;;;15.39;100.00;101805.25;7794649;22;20202;-68
2024/03/20 14:18:47;;;;;;;19.07;15.63;;;;;;;15.57;100.00;101792.66;7794347;22;20214;-70
2024/03/20 14:22:10;;;;;;;15.33;13.70;;;;;;;15.74;100.00;101791.03;7782713;22;20501;-70
2024/03/20 14:25:34;;;;;;;15.47;13.53;;;;;;;15.85;100.00;101785.44;7792262;22;20217;-69
2024/03/20 14:29:02;;;;;;;15.33;13.80;;;;;;;16.30;100.00;101789.09;7818693;22;20205;-71
2024/03/20 14:32:23;;;;;;;13.93;12.43;;;;;;;16.43;100.00;101788.75;7806083;22;20213;-69
2024/03/20 14:35:44;;;;;;;13.27;11.20;;;;;;;16.24;100.00;101788.84;7813471;22;20254;-70
2024/03/20 14:39:10;;;;;;;12.27;11.07;;;;;;;15.94;100.00;101790.84;7821603;22;20790;-71
2024/03/20 14:42:40;;;;;;;14.23;12.27;;;;;;;15.72;100.00;101776.75;7793254;22;20201;-69
2024/03/20 14:46:02;;;;;;;13.87;12.33;;;;;;;15.69;100.00;101786.03;7809540;22;20868;-68
2024/03/20 14:49:23;;;;;;;15.13;12.80;;;;;;;17.18;100.00;101782.94;7801299;22;20453;-69
2024/03/20 14:52:44;;;;;;;17.00;12.30;;;;;;;17.44;100.00;101773.81;7808990;22;20217;-69
2024/03/20 14:56:06;;;;;;;14.13;12.60;;;;;;;17.94;100.00;101768.53;7815694;22;20292;-70
2024/03/20 14:59:26;;;;;;;15.73;11.33;;;;;;;17.83;100.00;101770.72;7820724;22;20205;-71
2024/03/20 15:02:51;;;;;;;37.35;33.30;;;;;;;18.01;100.00;101776.94;7786996;22;20217;-71
2024/03/20 15:06:12;;;;;;;17.03;14.57;;;;;;;17.97;100.00;101770.97;7811271;22;20218;-69
2024/03/20 15:09:33;;;;;;;17.93;14.17;;;;;;;17.79;100.00;101766.59;7786148;22;20214;-69
2024/03/20 15:12:55;;;;;;;23.00;16.97;;;;;;;18.01;100.00;101769.63;7780150;22;20218;-69
2024/03/20 15:16:18;;;;;;;15.57;11.57;;;;;;;18.21;100.00;101770.25;7794417;22;20222;-70
2024/03/20 15:19:42;;;;;;;14.37;11.30;;;;;;;18.22;100.00;101771.94;7816215;22;20214;-73